Time;durP1;ratioP1;P1;durP2;ratioP2;P2;SDS_P1;SDS_P2;PMS_P1;PMS_P2;Temp;Humidity;BMP_temperature;BMP_pressure;BME280_temperature;BME280_humidity;BME280_pressure;Samples;Min_cycle;Max_cycle;Signal;HPM_P1;HPM_P2
2021/03/30 00:01:23;;;;;;;8.50;6.47;;;9.80;63.50;;;;;;4975211;28;20049;-82
2021/03/30 00:03:49;;;;;;;8.18;6.03;;;9.80;63.60;;;;;;4975035;28;20030;-82
2021/03/30 00:06:15;;;;;;;8.95;6.55;;;9.70;63.40;;;;;;5008522;28;20057;-83
2021/03/30 00:08:41;;;;;;;7.00;5.85;;;9.70;63.50;;;;;;4974559;28;20046;-84
2021/03/30 00:11:07;;;;;;;9.38;6.75;;;9.70;63.50;;;;;;4990570;28;20136;-87
2021/03/30 00:13:33;;;;;;;8.70;6.43;;;9.60;63.40;;;;;;5008367;28;20125;-85
2021/03/30 00:16:00;;;;;;;8.10;6.57;;;9.60;63.40;;;;;;4990884;28;20042;-84
2021/03/30 00:18:26;;;;;;;11.35;5.93;;;9.60;63.50;;;;;;4990826;28;20038;-86
2021/03/30 00:20:52;;;;;;;6.90;6.25;;;9.50;63.30;;;;;;5008097;28;20048;-85
2021/03/30 00:23:18;;;;;;;6.90;6.05;;;9.50;63.40;;;;;;4974523;28;20042;-87
2021/03/30 00:25:44;;;;;;;7.00;6.20;;;9.50;63.50;;;;;;5007303;28;20385;-83
2021/03/30 00:28:10;;;;;;;8.73;6.60;;;9.50;63.50;;;;;;4990448;28;20046;-86
2021/03/30 00:30:36;;;;;;;7.43;6.35;;;9.40;63.40;;;;;;5008486;28;20045;-85
2021/03/30 00:33:03;;;;;;;7.38;6.05;;;9.40;63.40;;;;;;4974589;28;20069;-85
2021/03/30 00:35:29;;;;;;;11.63;6.43;;;9.40;63.50;;;;;;5009052;28;20260;-84
2021/03/30 00:37:55;;;;;;;7.00;6.28;;;9.40;63.50;;;;;;4974648;28;20072;-83
2021/03/30 00:40:21;;;;;;;8.50;6.13;;;9.30;63.40;;;;;;4990584;28;20141;-85
2021/03/30 00:42:47;;;;;;;8.45;6.18;;;9.30;63.40;;;;;;4990140;28;20069;-87
2021/03/30 00:45:14;;;;;;;8.65;6.30;;;9.30;63.40;;;;;;4990239;28;20037;-85
2021/03/30 00:47:44;;;;;;;8.02;6.63;;;9.20;63.30;;;;;;4974171;28;20537;-82
2021/03/30 00:50:13;;;;;;;6.28;5.60;;;9.20;63.40;;;;;;5008228;28;20045;-84
2021/03/30 00:52:41;;;;;;;6.93;6.18;;;9.20;63.40;;;;;;5008135;28;20046;-87
2021/03/30 00:55:26;;;;;;;9.52;6.50;;;9.20;63.40;;;;;;5014808;28;20053;-83
2021/03/30 00:57:53;;;;;;;6.25;5.65;;;9.10;63.20;;;;;;4995545;28;20053;-83
2021/03/30 01:00:19;;;;;;;6.68;5.43;;;9.10;63.30;;;;;;4994083;28;20037;-85
2021/03/30 01:02:45;;;;;;;6.75;6.03;;;9.10;63.30;;;;;;4995322;28;20496;-89
2021/03/30 01:05:13;;;;;;;7.07;5.40;;;9.00;63.20;;;;;;5027509;28;20052;-86
2021/03/30 01:08:06;;;;;;;10.68;6.38;;;9.00;63.20;;;;;;4976079;28;20104;-84
2021/03/30 01:10:49;;;;;;;6.20;5.63;;;9.00;63.30;;;;;;4975173;28;20072;-85
2021/03/30 01:13:57;;;;;;;6.70;5.63;;;8.90;63.20;;;;;;4990539;28;20042;-82
2021/03/30 01:16:36;;;;;;;7.43;5.75;;;8.90;63.20;;;;;;4990266;28;20362;-84
2021/03/30 01:19:27;;;;;;;7.88;6.18;;;8.90;63.20;;;;;;4991791;28;20042;-91
2021/03/30 01:22:10;;;;;;;6.35;5.72;;;8.90;63.20;;;;;;4991437;28;20136;-92
2021/03/30 01:24:38;;;;;;;7.82;5.70;;;8.80;63.10;;;;;;4973439;28;20075;-85
2021/03/30 01:27:20;;;;;;;7.82;6.18;;;8.90;63.20;;;;;;5007063;28;20045;-86
2021/03/30 01:29:53;;;;;;;9.20;6.43;;;8.80;63.10;;;;;;4973740;28;20049;-87
2021/03/30 01:32:51;;;;;;;7.03;6.30;;;8.80;63.10;;;;;;4974085;28;20060;-83
2021/03/30 01:35:24;;;;;;;8.68;6.78;;;8.70;63.00;;;;;;4946454;28;20137;-84
2021/03/30 01:37:51;;;;;;;7.60;5.82;;;8.70;63.00;;;;;;4973755;28;20137;-82
2021/03/30 01:40:23;;;;;;;6.28;5.78;;;8.70;63.00;;;;;;4971880;28;20143;-86
2021/03/30 01:42:51;;;;;;;7.40;6.25;;;8.70;63.10;;;;;;4990888;28;20060;-87
2021/03/30 01:45:19;;;;;;;8.77;5.88;;;8.60;63.00;;;;;;4974317;28;20065;-81
2021/03/30 01:47:46;;;;;;;7.72;6.00;;;8.60;63.00;;;;;;5011215;28;20452;-87
2021/03/30 01:50:14;;;;;;;7.15;5.47;;;8.60;63.00;;;;;;4997727;28;20092;-85
2021/03/30 01:52:41;;;;;;;8.93;6.55;;;8.60;63.00;;;;;;4997743;28;20189;-87
2021/03/30 01:55:09;;;;;;;10.43;7.13;;;8.50;62.90;;;;;;4997297;28;20044;-86
2021/03/30 01:57:37;;;;;;;13.80;6.60;;;8.50;63.00;;;;;;4998146;28;20060;-89
2021/03/30 02:00:09;;;;;;;8.50;6.35;;;8.50;63.00;;;;;;4996607;28;20424;-86
2021/03/30 02:02:41;;;;;;;8.93;6.82;;;8.50;63.10;;;;;;5030080;28;20504;-85
2021/03/30 02:05:09;;;;;;;11.00;7.13;;;8.40;62.90;;;;;;5012658;28;20037;-87
2021/03/30 02:07:36;;;;;;;7.72;5.97;;;8.40;63.00;;;;;;5012484;28;20060;-88
2021/03/30 02:10:10;;;;;;;9.40;6.80;;;8.40;63.50;;;;;;5012130;28;20125;-87
2021/03/30 02:12:41;;;;;;;6.25;5.65;;;8.40;63.00;;;;;;5012939;28;20071;-89
2021/03/30 02:15:14;;;;;;;8.13;6.38;;;8.40;63.00;;;;;;5012821;28;20040;-87
2021/03/30 02:17:59;;;;;;;7.40;6.18;;;8.30;62.90;;;;;;5013237;28;20456;-87
2021/03/30 02:20:35;;;;;;;7.38;6.07;;;8.30;63.00;;;;;;4994380;28;20049;-86
2021/03/30 02:23:07;;;;;;;9.80;6.65;;;8.30;63.00;;;;;;5030856;28;20044;-83
2021/03/30 02:25:34;;;;;;;7.93;6.47;;;8.30;63.00;;;;;;4996365;28;20163;-82
2021/03/30 02:28:09;;;;;;;7.80;6.93;;;8.30;62.90;;;;;;4980402;28;20045;-85
2021/03/30 02:30:36;;;;;;;8.10;5.93;;;8.20;62.80;;;;;;5029778;28;20097;-86
2021/03/30 02:33:05;;;;;;;8.50;7.30;;;8.20;62.80;;;;;;5029904;28;20052;-83
2021/03/30 02:35:32;;;;;;;7.93;5.95;;;8.20;62.90;;;;;;5011723;28;20045;-82
2021/03/30 02:38:01;;;;;;;12.23;7.00;;;8.20;62.90;;;;;;5012529;28;20273;-86
2021/03/30 02:40:28;;;;;;;9.00;6.78;;;8.20;62.90;;;;;;5012534;28;20120;-84
2021/03/30 02:42:56;;;;;;;8.50;6.50;;;8.20;63.00;;;;;;5030431;28;20037;-88
2021/03/30 02:45:28;;;;;;;7.75;6.93;;;8.10;62.80;;;;;;5013232;28;20065;-82
2021/03/30 02:47:59;;;;;;;11.02;6.70;;;8.10;62.90;;;;;;5031708;28;20046;-88
2021/03/30 02:50:27;;;;;;;7.63;6.05;;;8.10;62.90;;;;;;5001158;28;20081;-85
2021/03/30 02:52:55;;;;;;;8.10;6.38;;;8.10;62.90;;;;;;5016795;28;20140;-85
2021/03/30 02:55:23;;;;;;;7.95;6.18;;;8.10;62.90;;;;;;5034543;28;20103;-84
2021/03/30 02:57:50;;;;;;;12.43;7.63;;;8.00;62.80;;;;;;5017278;28;20560;-91
2021/03/30 03:00:17;;;;;;;8.63;6.05;;;8.00;62.80;;;;;;5035458;28;20105;-83
2021/03/30 03:02:45;;;;;;;9.38;6.60;;;8.00;62.90;;;;;;5001749;28;20060;-82
2021/03/30 03:05:11;;;;;;;8.90;6.55;;;8.00;62.90;;;;;;5002429;28;20034;-84
2021/03/30 03:07:39;;;;;;;7.68;6.57;;;8.00;62.90;;;;;;5024050;28;20120;-82
2021/03/30 03:10:10;;;;;;;8.88;7.07;;;8.00;63.00;;;;;;5035637;28;20294;-84
2021/03/30 03:12:38;;;;;;;10.18;6.18;;;7.90;62.80;;;;;;5036076;28;20038;-86
2021/03/30 03:15:07;;;;;;;11.18;6.95;;;7.90;62.80;;;;;;5023683;28;20044;-83
2021/03/30 03:17:35;;;;;;;10.02;7.13;;;7.90;62.80;;;;;;5001753;28;20046;-84
2021/03/30 03:20:04;;;;;;;8.75;6.85;;;7.90;62.90;;;;;;5017377;28;20090;-87
2021/03/30 03:22:30;;;;;;;9.70;6.65;;;7.90;62.90;;;;;;5000534;28;20069;-85
2021/03/30 03:24:56;;;;;;;10.13;6.88;;;7.80;62.70;;;;;;5033781;28;20060;-84
2021/03/30 03:27:22;;;;;;;9.55;7.00;;;7.90;63.00;;;;;;5015776;28;20072;-87
2021/03/30 03:29:48;;;;;;;9.40;6.88;;;7.80;62.80;;;;;;5016351;28;20056;-86
2021/03/30 03:32:14;;;;;;;10.07;7.07;;;7.80;62.80;;;;;;5016190;28;20048;-85
2021/03/30 03:34:42;;;;;;;10.40;7.60;;;7.80;62.80;;;;;;5016389;28;20046;-84
2021/03/30 03:37:08;;;;;;;8.40;6.70;;;7.80;62.80;;;;;;5016051;28;20040;-82
2021/03/30 03:39:34;;;;;;;10.13;7.47;;;7.80;62.80;;;;;;5015764;28;20187;-82
2021/03/30 03:42:00;;;;;;;8.45;7.05;;;7.80;62.80;;;;;;5033447;28;20037;-85
2021/03/30 03:44:29;;;;;;;9.23;7.10;;;7.80;62.80;;;;;;5015862;28;20224;-88
2021/03/30 03:46:55;;;;;;;9.40;7.28;;;7.80;63.00;;;;;;4999657;28;20074;-87
2021/03/30 03:49:25;;;;;;;9.13;7.35;;;7.80;62.90;;;;;;5033467;28;20095;-84
2021/03/30 03:52:05;;;;;;;10.25;8.00;;;7.70;62.80;;;;;;5033038;28;20051;-83
2021/03/30 03:54:33;;;;;;;10.10;7.22;;;7.70;62.80;;;;;;5015694;28;20060;-83
2021/03/30 03:57:22;;;;;;;8.07;7.00;;;7.70;62.80;;;;;;4999189;28;20522;-85
2021/03/30 03:59:49;;;;;;;10.38;7.38;;;7.70;62.80;;;;;;5014483;28;20037;-86
2021/03/30 04:02:28;;;;;;;9.43;6.93;;;7.70;62.80;;;;;;5032836;28;20037;-83
2021/03/30 04:05:03;;;;;;;10.32;7.65;;;7.70;62.90;;;;;;5015090;28;20054;-83
2021/03/30 04:07:35;;;;;;;8.63;7.65;;;7.60;62.70;;;;;;5014984;28;20046;-84
2021/03/30 04:10:05;;;;;;;11.85;6.85;;;7.60;62.70;;;;;;5014746;28;20072;-82
2021/03/30 04:12:34;;;;;;;10.68;7.85;;;7.60;62.70;;;;;;5032342;28;20075;-80
2021/03/30 04:15:00;;;;;;;9.38;7.63;;;7.60;62.80;;;;;;5014513;28;20112;-82
2021/03/30 04:17:26;;;;;;;10.68;7.90;;;7.60;62.80;;;;;;5013922;28;20048;-83
2021/03/30 04:19:52;;;;;;;10.63;6.95;;;7.60;62.80;;;;;;5032157;28;20037;-85
2021/03/30 04:22:18;;;;;;;9.70;7.32;;;7.50;62.70;;;;;;5014443;28;20044;-84
2021/03/30 04:24:45;;;;;;;9.13;7.72;;;7.50;62.70;;;;;;4998865;28;20033;-80
2021/03/30 04:27:15;;;;;;;13.35;7.85;;;7.50;62.70;;;;;;5014976;28;20090;-84
2021/03/30 04:29:42;;;;;;;9.68;8.07;;;7.50;62.80;;;;;;4998645;28;20041;-85
2021/03/30 04:32:09;;;;;;;9.23;7.55;;;7.50;62.80;;;;;;4998579;28;20056;-81
2021/03/30 04:34:36;;;;;;;13.88;8.10;;;7.50;62.80;;;;;;5032225;28;20041;-80
2021/03/30 04:37:03;;;;;;;8.57;7.68;;;7.50;62.90;;;;;;5032235;28;20053;-85
2021/03/30 04:39:29;;;;;;;9.52;7.47;;;7.40;62.70;;;;;;5031911;28;20033;-79
2021/03/30 04:41:55;;;;;;;14.80;8.48;;;7.40;62.80;;;;;;5014740;28;20485;-82
2021/03/30 04:44:21;;;;;;;8.90;7.40;;;7.40;62.80;;;;;;5014544;28;20069;-84
2021/03/30 04:46:47;;;;;;;11.52;7.63;;;7.40;62.80;;;;;;5013807;28;20073;-80
2021/03/30 04:49:13;;;;;;;10.50;8.43;;;7.40;62.80;;;;;;4992065;28;20045;-82
2021/03/30 04:51:39;;;;;;;9.45;8.13;;;7.40;62.80;;;;;;4991656;28;20110;-84
2021/03/30 04:54:05;;;;;;;9.40;7.28;;;7.40;62.80;;;;;;5010517;28;20034;-86
2021/03/30 04:56:31;;;;;;;12.98;7.88;;;7.40;62.80;;;;;;5010736;28;20045;-86
2021/03/30 04:58:57;;;;;;;11.90;7.55;;;7.30;62.60;;;;;;4992378;28;20033;-80
2021/03/30 05:01:22;;;;;;;10.32;7.75;;;7.30;62.60;;;;;;5009610;28;20437;-88
2021/03/30 05:03:48;;;;;;;8.38;7.13;;;7.30;62.70;;;;;;4986968;28;20050;-86
2021/03/30 05:06:14;;;;;;;9.82;7.32;;;7.30;62.70;;;;;;4988892;28;20490;-82
2021/03/30 05:08:40;;;;;;;10.85;8.18;;;7.30;62.70;;;;;;4958909;28;20044;-88
2021/03/30 05:11:06;;;;;;;10.23;7.65;;;7.30;62.70;;;;;;4992400;28;20033;-91
2021/03/30 05:13:32;;;;;;;9.95;8.02;;;7.30;62.70;;;;;;4993740;28;20045;-85
2021/03/30 05:15:58;;;;;;;10.98;7.93;;;7.30;62.70;;;;;;5011721;28;20485;-83
2021/03/30 05:18:24;;;;;;;10.27;7.97;;;7.30;62.80;;;;;;5013174;28;20109;-82
2021/03/30 05:20:50;;;;;;;8.38;7.57;;;7.20;62.60;;;;;;5003839;28;20045;-82
2021/03/30 05:23:16;;;;;;;8.75;7.28;;;7.20;62.60;;;;;;4976884;28;20045;-91
2021/03/30 05:25:42;;;;;;;10.82;7.60;;;7.20;62.70;;;;;;4992405;28;20033;-86
2021/03/30 05:28:08;;;;;;;11.45;7.80;;;7.20;62.70;;;;;;4991776;28;20080;-90
2021/03/30 05:30:34;;;;;;;13.32;8.23;;;7.20;62.70;;;;;;4975105;28;20038;-84
2021/03/30 05:33:00;;;;;;;11.00;8.00;;;7.20;62.80;;;;;;4990974;28;20141;-83
2021/03/30 05:35:26;;;;;;;9.23;7.43;;;7.20;62.80;;;;;;4990841;28;20037;-87
2021/03/30 05:37:52;;;;;;;9.27;7.47;;;7.10;62.60;;;;;;4990808;28;20042;-85
2021/03/30 05:40:20;;;;;;;9.07;8.18;;;7.10;62.70;;;;;;4990448;28;20045;-87
2021/03/30 05:42:46;;;;;;;8.55;7.22;;;7.10;62.70;;;;;;4990361;28;20038;-84
2021/03/30 05:45:15;;;;;;;11.00;7.95;;;7.10;62.70;;;;;;4974688;28;20046;-85
2021/03/30 05:47:41;;;;;;;11.50;7.80;;;7.10;62.70;;;;;;4974305;28;20163;-87
2021/03/30 05:50:13;;;;;;;10.45;8.45;;;7.10;62.70;;;;;;4989990;28;20121;-87
2021/03/30 05:52:51;;;;;;;8.77;7.95;;;7.10;62.70;;;;;;5007378;28;20045;-82
2021/03/30 05:55:27;;;;;;;11.13;8.68;;;7.10;62.70;;;;;;5007665;28;20413;-85
2021/03/30 05:57:56;;;;;;;9.73;8.18;;;7.00;62.60;;;;;;4990130;28;20074;-84
2021/03/30 06:00:25;;;;;;;9.45;8.27;;;7.10;62.70;;;;;;4989858;28;20050;-86
2021/03/30 06:02:54;;;;;;;9.02;8.05;;;7.10;62.80;;;;;;5007601;28;20990;-84
2021/03/30 06:05:20;;;;;;;11.88;8.95;;;7.10;62.80;;;;;;5007697;28;20053;-84
2021/03/30 06:07:48;;;;;;;14.57;9.48;;;7.10;62.70;;;;;;4991508;28;20057;-86
2021/03/30 06:10:19;;;;;;;10.10;9.13;;;7.10;62.80;;;;;;4990972;28;20183;-86
2021/03/30 06:12:46;;;;;;;15.82;9.73;;;7.10;62.80;;;;;;4974521;28;20216;-89
2021/03/30 06:15:13;;;;;;;10.75;7.80;;;7.10;62.80;;;;;;5007593;28;20623;-85
2021/03/30 06:17:44;;;;;;;10.15;8.07;;;7.10;62.80;;;;;;4974273;28;20681;-87
2021/03/30 06:20:24;;;;;;;15.40;9.85;;;7.10;62.80;;;;;;4970300;28;20493;-91
2021/03/30 06:22:56;;;;;;;11.68;8.68;;;7.20;63.00;;;;;;4975521;28;20034;-82
2021/03/30 06:25:37;;;;;;;11.10;8.55;;;7.20;62.90;;;;;;4974601;28;20042;-86
2021/03/30 06:28:15;;;;;;;13.15;8.65;;;7.30;63.20;;;;;;4981788;28;20232;-86
2021/03/30 06:31:04;;;;;;;12.93;8.52;;;7.30;63.10;;;;;;4979117;28;20346;-85
2021/03/30 06:33:34;;;;;;;18.55;9.35;;;7.40;63.70;;;;;;4978635;28;20701;-83
2021/03/30 06:36:10;;;;;;;10.98;8.93;;;7.60;64.30;;;;;;4976982;28;20181;-83
2021/03/30 06:39:09;;;;;;;10.73;9.63;;;7.80;65.40;;;;;;4977524;28;20107;-80
2021/03/30 06:42:09;;;;;;;13.48;10.70;;;8.20;66.50;;;;;;4950315;28;20042;-82
2021/03/30 06:44:38;;;;;;;11.85;9.82;;;8.50;66.80;;;;;;4976715;28;20053;-82
2021/03/30 06:47:14;;;;;;;16.65;12.05;;;8.90;67.20;;;;;;4990567;28;20141;-83
2021/03/30 06:49:54;;;;;;;15.52;10.45;;;9.20;68.00;;;;;;4978355;28;20047;-88
2021/03/30 06:52:26;;;;;;;13.75;10.90;;;9.50;68.60;;;;;;4985471;28;20034;-87
2021/03/30 06:54:57;;;;;;;;;;;9.90;68.90;;;;;;4988318;28;20547;-84
2021/03/30 06:57:46;;;;;;;10.70;9.38;;;10.00;68.20;;;;;;4973709;28;19910;-84
2021/03/30 07:00:25;;;;;;;13.73;9.82;;;10.20;68.40;;;;;;4974301;28;20501;-85
2021/03/30 07:02:54;;;;;;;14.48;10.57;;;10.40;68.50;;;;;;4981386;28;20084;-89
2021/03/30 07:05:31;;;;;;;15.77;10.25;;;10.40;68.80;;;;;;4978379;28;20054;-85
2021/03/30 07:08:00;;;;;;;16.42;10.90;;;10.50;69.30;;;;;;4976331;28;20196;-86
2021/03/30 07:10:27;;;;;;;10.75;9.02;;;10.60;69.80;;;;;;4977562;28;20084;-85
2021/03/30 07:12:54;;;;;;;12.43;9.80;;;10.80;70.30;;;;;;4978198;28;20038;-87
2021/03/30 07:15:25;;;;;;;16.17;9.27;;;11.00;70.90;;;;;;4978345;28;20145;-87
2021/03/30 07:17:58;;;;;;;13.30;10.02;;;11.20;71.40;;;;;;4977734;28;20041;-85
2021/03/30 07:20:25;;;;;;;15.55;9.23;;;11.40;71.80;;;;;;4976699;28;20441;-87
2021/03/30 07:22:54;;;;;;;15.13;9.40;;;11.60;71.80;;;;;;4966616;28;20130;-88
2021/03/30 07:25:22;;;;;;;9.98;8.93;;;11.80;72.20;;;;;;4982844;28;20061;-86
2021/03/30 07:27:59;;;;;;;17.42;9.45;;;12.00;72.40;;;;;;4999171;28;20038;-86
2021/03/30 07:30:25;;;;;;;12.40;8.70;;;12.10;72.50;;;;;;5013315;28;20037;-88
2021/03/30 07:33:17;;;;;;;14.45;9.00;;;12.30;72.60;;;;;;4988318;28;20050;-86
2021/03/30 07:35:45;;;;;;;11.18;9.85;;;12.40;72.80;;;;;;4976378;28;20042;-83
2021/03/30 07:38:19;;;;;;;10.68;9.35;;;12.60;72.80;;;;;;4989533;28;20033;-85
2021/03/30 07:40:46;;;;;;;11.32;8.75;;;12.70;72.90;;;;;;4978021;28;20121;-84
2021/03/30 07:43:18;;;;;;;14.88;8.63;;;12.90;73.00;;;;;;4976320;28;20041;-85
2021/03/30 07:45:45;;;;;;;12.02;9.57;;;13.00;73.00;;;;;;4993230;28;20045;-84
2021/03/30 07:48:15;;;;;;;11.88;8.75;;;13.20;73.20;;;;;;4975498;28;20066;-83
2021/03/30 07:51:02;;;;;;;11.52;9.13;;;13.30;73.70;;;;;;4978782;28;20441;-84
2021/03/30 07:53:38;;;;;;;12.75;8.50;;;13.40;73.90;;;;;;4976148;28;20089;-82
2021/03/30 07:56:32;;;;;;;12.88;9.13;;;13.60;73.40;;;;;;4990989;28;20038;-82
2021/03/30 07:58:58;;;;;;;9.88;7.78;;;13.70;73.30;;;;;;5008186;28;20436;-81
2021/03/30 08:01:28;;;;;;;11.15;8.30;;;13.90;73.20;;;;;;4974744;28;20026;-82
2021/03/30 08:03:56;;;;;;;10.95;8.35;;;14.00;73.10;;;;;;5008150;28;20545;-82
2021/03/30 08:06:25;;;;;;;9.27;7.10;;;14.00;72.80;;;;;;4990367;28;20460;-83
2021/03/30 08:09:01;;;;;;;11.23;8.60;;;14.10;72.70;;;;;;4975075;28;20045;-85
2021/03/30 08:11:47;;;;;;;11.07;8.63;;;14.20;72.60;;;;;;4975318;28;20133;-84
2021/03/30 08:14:19;;;;;;;11.15;7.80;;;14.30;72.50;;;;;;4989457;28;20547;-82
2021/03/30 08:16:49;;;;;;;9.60;8.07;;;14.30;72.30;;;;;;4990997;28;20050;-83
2021/03/30 08:19:16;;;;;;;13.32;8.40;;;14.40;72.30;;;;;;4966135;28;20046;-83
2021/03/30 08:22:05;;;;;;;15.38;9.48;;;14.50;72.30;;;;;;4989814;28;20037;-83
2021/03/30 08:24:46;;;;;;;15.23;10.85;;;14.60;72.20;;;;;;4970654;28;20038;-85
2021/03/30 08:27:31;;;;;;;16.52;10.85;;;14.70;72.20;;;;;;4972455;28;20062;-86
2021/03/30 08:29:58;;;;;;;13.13;8.57;;;14.70;72.00;;;;;;4972057;28;20129;-84
2021/03/30 08:32:24;;;;;;;11.27;8.88;;;14.80;71.90;;;;;;4973530;28;20053;-81
2021/03/30 08:34:50;;;;;;;14.45;9.23;;;14.90;71.90;;;;;;4989396;28;20045;-82
2021/03/30 08:37:17;;;;;;;11.73;8.68;;;14.90;71.80;;;;;;4973995;28;20408;-81
2021/03/30 08:39:44;;;;;;;13.52;8.90;;;15.00;71.90;;;;;;4989090;28;20038;-81
2021/03/30 08:42:15;;;;;;;11.85;8.00;;;15.00;71.70;;;;;;4989485;28;20299;-83
2021/03/30 08:44:56;;;;;;;12.70;8.68;;;15.10;71.70;;;;;;4974193;28;20048;-84
2021/03/30 08:47:41;;;;;;;11.43;7.45;;;15.20;71.70;;;;;;4974221;28;20057;-83
2021/03/30 08:50:14;;;;;;;13.05;8.68;;;15.30;71.70;;;;;;4990026;28;20038;-82
2021/03/30 08:52:40;;;;;;;12.90;8.43;;;15.40;71.70;;;;;;4975091;28;20042;-86
2021/03/30 08:55:09;;;;;;;12.32;8.20;;;15.40;71.50;;;;;;4991156;28;20037;-87
2021/03/30 08:57:37;;;;;;;12.65;8.88;;;15.50;71.50;;;;;;4974083;28;20063;-81
2021/03/30 09:00:12;;;;;;;9.25;7.88;;;15.70;71.60;;;;;;4972479;28;20045;-85
2021/03/30 09:02:38;;;;;;;11.18;7.95;;;15.70;71.40;;;;;;4973680;28;20065;-84
2021/03/30 09:05:19;;;;;;;10.68;8.10;;;15.80;71.30;;;;;;4974161;28;20072;-85
2021/03/30 09:07:46;;;;;;;14.02;8.45;;;15.90;71.20;;;;;;4974662;28;20053;-86
2021/03/30 09:10:14;;;;;;;9.77;8.27;;;16.00;71.20;;;;;;5004871;28;20038;-84
2021/03/30 09:12:41;;;;;;;11.88;8.15;;;16.10;71.10;;;;;;4990139;28;20424;-84
2021/03/30 09:15:12;;;;;;;10.27;8.38;;;16.20;71.10;;;;;;4971029;28;20038;-90
2021/03/30 09:17:58;;;;;;;14.02;8.20;;;16.30;71.00;;;;;;4987026;28;20042;-87
2021/03/30 09:20:29;;;;;;;13.63;8.82;;;16.40;70.90;;;;;;4980515;28;20042;-82
2021/03/30 09:22:58;;;;;;;13.75;9.45;;;16.40;70.60;;;;;;4991556;28;20121;-86
2021/03/30 09:25:42;;;;;;;9.90;8.88;;;16.50;70.60;;;;;;4992342;28;20114;-90
2021/03/30 09:28:16;;;;;;;11.77;8.40;;;16.60;70.60;;;;;;4995232;28;20046;-89
2021/03/30 09:30:43;;;;;;;10.70;8.43;;;16.60;70.30;;;;;;5008867;28;20042;-85
2021/03/30 09:33:10;;;;;;;9.95;8.65;;;16.70;70.30;;;;;;4986468;28;20256;-80
2021/03/30 09:35:36;;;;;;;13.00;8.77;;;16.70;70.10;;;;;;4970148;28;20042;-83
2021/03/30 09:38:04;;;;;;;11.30;8.85;;;16.70;70.00;;;;;;4957258;28;20038;-91
2021/03/30 09:40:38;;;;;;;12.30;9.30;;;16.70;69.80;;;;;;4973617;28;20593;-83
2021/03/30 09:43:10;;;;;;;12.00;9.10;;;16.70;69.70;;;;;;4972555;28;20038;-86
2021/03/30 09:45:38;;;;;;;10.90;8.55;;;16.80;69.80;;;;;;4972063;28;20072;-84
2021/03/30 09:48:07;;;;;;;10.18;9.18;;;16.80;69.70;;;;;;4986261;28;20089;-84
2021/03/30 09:50:33;;;;;;;10.90;8.55;;;16.80;69.60;;;;;;4969225;28;20466;-82
2021/03/30 09:53:05;;;;;;;14.38;9.15;;;16.80;69.40;;;;;;4977341;28;20057;-86
2021/03/30 09:55:32;;;;;;;8.93;8.02;;;16.90;69.40;;;;;;4959336;28;20083;-91
2021/03/30 09:58:09;;;;;;;10.18;8.77;;;16.90;69.30;;;;;;4975084;28;20037;-85
2021/03/30 10:00:40;;;;;;;11.15;8.68;;;16.80;69.00;;;;;;4978066;28;20042;-84
2021/03/30 10:03:09;;;;;;;11.52;8.40;;;16.90;69.10;;;;;;4979970;28;20159;-87
2021/03/30 10:05:37;;;;;;;10.82;9.18;;;16.90;69.00;;;;;;4992949;28;20042;-84
2021/03/30 10:08:04;;;;;;;10.40;9.30;;;16.90;68.90;;;;;;4993699;28;20072;-83
2021/03/30 10:10:43;;;;;;;9.38;8.48;;;16.80;68.60;;;;;;4977340;28;20044;-83
2021/03/30 10:13:33;;;;;;;13.65;9.48;;;16.80;68.50;;;;;;4976338;28;20439;-82
2021/03/30 10:16:03;;;;;;;16.33;11.10;;;16.80;68.10;;;;;;4992337;28;20078;-83
2021/03/30 10:18:29;;;;;;;15.68;10.52;;;16.80;68.10;;;;;;4975473;28;20057;-82
2021/03/30 10:21:11;;;;;;;13.82;10.30;;;16.80;68.00;;;;;;4992473;28;20046;-81
2021/03/30 10:23:44;;;;;;;14.75;9.55;;;16.80;67.90;;;;;;4992607;28;20033;-83
2021/03/30 10:26:21;;;;;;;12.80;8.90;;;16.80;67.80;;;;;;5010497;28;20037;-81
2021/03/30 10:29:03;;;;;;;12.48;10.07;;;16.80;67.80;;;;;;5006130;28;20045;-84
2021/03/30 10:34:29;;;;;;;9.38;8.30;;;16.90;68.00;;;;;;5011800;28;20046;-83
2021/03/30 10:36:59;;;;;;;12.38;9.52;;;16.90;67.80;;;;;;4995353;28;20045;-82
2021/03/30 10:39:34;;;;;;;14.93;10.68;;;16.90;67.80;;;;;;4985308;28;20054;-81
2021/03/30 10:42:03;;;;;;;9.63;8.60;;;16.90;67.70;;;;;;4985910;28;20048;-84
2021/03/30 10:44:44;;;;;;;12.95;8.77;;;17.00;67.80;;;;;;4980971;28;20568;-83
2021/03/30 10:47:13;;;;;;;11.63;9.48;;;17.00;67.70;;;;;;4976565;28;20437;-83
2021/03/30 10:49:40;;;;;;;11.52;8.98;;;17.00;67.70;;;;;;4973053;28;20096;-86
2021/03/30 10:52:10;;;;;;;11.38;9.18;;;17.10;67.80;;;;;;4956964;28;20061;-82
2021/03/30 10:54:37;;;;;;;11.32;9.80;;;17.10;67.80;;;;;;4991160;28;20378;-83
2021/03/30 10:57:07;;;;;;;10.70;8.93;;;17.10;67.70;;;;;;4990433;28;20073;-83
2021/03/30 10:59:33;;;;;;;12.15;8.52;;;17.10;67.70;;;;;;4988484;28;20045;-82
2021/03/30 11:01:59;;;;;;;8.57;7.43;;;17.20;67.80;;;;;;4991930;28;20034;-82
2021/03/30 11:04:25;;;;;;;11.70;8.85;;;17.20;67.70;;;;;;5009314;28;20473;-84
2021/03/30 11:06:51;;;;;;;11.52;8.43;;;17.20;67.60;;;;;;4992935;28;20305;-93
2021/03/30 11:09:18;;;;;;;11.70;8.68;;;17.30;67.70;;;;;;4975912;28;20151;-83
2021/03/30 11:11:44;;;;;;;10.48;8.40;;;17.30;67.60;;;;;;4976499;28;20100;-86
2021/03/30 11:14:10;;;;;;;10.00;8.13;;;17.30;67.50;;;;;;5010497;28;20046;-82
2021/03/30 11:16:36;;;;;;;10.50;7.85;;;17.40;67.60;;;;;;4979406;28;20082;-86
2021/03/30 11:19:03;;;;;;;9.15;8.13;;;17.40;67.50;;;;;;4985453;28;20048;-86
2021/03/30 11:21:29;;;;;;;8.55;7.65;;;17.40;67.40;;;;;;4993598;28;20057;-84
2021/03/30 11:23:59;;;;;;;11.00;8.25;;;17.50;67.50;;;;;;4973257;28;20050;-83
2021/03/30 11:26:26;;;;;;;14.52;8.20;;;17.50;67.40;;;;;;4997532;28;20141;-84
2021/03/30 11:28:53;;;;;;;7.82;6.88;;;17.50;67.30;;;;;;4992257;28;20052;-83
2021/03/30 11:31:40;;;;;;;11.32;7.95;;;17.60;67.40;;;;;;4992947;28;20038;-83
2021/03/30 11:34:40;;;;;;;9.82;8.38;;;17.60;67.40;;;;;;4991846;28;20037;-82
2021/03/30 11:39:51;;;;;;;9.55;8.60;;;17.70;67.40;;;;;;4952496;28;20054;-87
2021/03/30 11:42:18;;;;;;;9.85;7.30;;;17.80;67.40;;;;;;4973829;28;20046;-81
2021/03/30 11:44:45;;;;;;;10.00;7.82;;;17.80;67.30;;;;;;4991157;28;20125;-84
2021/03/30 11:47:11;;;;;;;8.48;7.65;;;17.90;67.40;;;;;;4977195;28;20049;-83
2021/03/30 11:49:38;;;;;;;8.48;7.18;;;18.00;67.50;;;;;;4976257;28;20165;-84
2021/03/30 11:52:05;;;;;;;9.32;7.90;;;18.00;67.30;;;;;;4992247;28;20041;-89
2021/03/30 11:54:32;;;;;;;8.68;7.47;;;18.00;67.20;;;;;;4986428;28;20400;-86
2021/03/30 11:56:58;;;;;;;9.38;7.47;;;18.10;67.30;;;;;;5031907;28;20103;-83
2021/03/30 11:59:24;;;;;;;8.80;7.43;;;18.10;67.20;;;;;;5000220;28;20125;-84
2021/03/30 12:01:51;;;;;;;7.85;7.05;;;18.20;67.30;;;;;;4992977;28;20521;-86
2021/03/30 12:04:17;;;;;;;12.35;7.20;;;18.20;67.20;;;;;;5026432;28;20045;-83
2021/03/30 12:06:45;;;;;;;8.85;7.25;;;18.20;67.10;;;;;;5010925;28;20139;-82
2021/03/30 12:09:12;;;;;;;8.40;7.50;;;18.30;67.20;;;;;;5000228;28;20034;-86
2021/03/30 12:11:38;;;;;;;7.95;7.05;;;18.40;67.20;;;;;;5011034;28;20343;-85
2021/03/30 12:14:04;;;;;;;9.85;6.80;;;18.40;67.20;;;;;;4994570;28;20034;-89
2021/03/30 12:16:30;;;;;;;8.50;7.05;;;18.40;67.00;;;;;;5012706;28;20049;-87
2021/03/30 12:18:57;;;;;;;7.90;7.00;;;18.50;67.10;;;;;;4979665;28;20034;-87
2021/03/30 12:21:24;;;;;;;7.57;6.82;;;18.50;67.00;;;;;;4979684;28;20457;-91
2021/03/30 12:23:50;;;;;;;6.63;6.03;;;18.50;66.90;;;;;;4994017;28;20437;-86
2021/03/30 12:26:16;;;;;;;7.60;6.43;;;18.50;66.90;;;;;;4997330;28;20141;-82
2021/03/30 12:28:42;;;;;;;7.10;6.40;;;18.60;66.90;;;;;;5014729;28;20053;-88
2021/03/30 12:31:09;;;;;;;7.88;6.85;;;18.70;67.00;;;;;;4995789;28;20038;-83
2021/03/30 12:33:39;;;;;;;10.15;6.65;;;18.70;67.00;;;;;;4995529;28;20046;-86
2021/03/30 12:36:06;;;;;;;7.40;6.55;;;18.70;66.90;;;;;;4978941;28;20042;-85
2021/03/30 12:38:33;;;;;;;7.70;6.38;;;18.70;66.80;;;;;;5012552;28;20512;-86
2021/03/30 12:40:59;;;;;;;9.65;7.00;;;18.80;66.90;;;;;;4978654;28;20037;-87
2021/03/30 12:43:25;;;;;;;6.82;5.85;;;18.80;66.80;;;;;;4996220;28;20082;-86
2021/03/30 12:45:51;;;;;;;8.45;6.45;;;18.90;66.90;;;;;;4996267;28;20074;-88
2021/03/30 12:48:17;;;;;;;7.22;6.53;;;18.90;66.80;;;;;;4963235;28;20048;-89
2021/03/30 12:50:43;;;;;;;7.60;6.20;;;19.00;66.90;;;;;;5012006;28;20029;-81
2021/03/30 12:53:09;;;;;;;7.00;6.20;;;19.10;67.10;;;;;;5009373;28;20088;-87
2021/03/30 12:55:35;;;;;;;7.28;6.57;;;19.10;67.50;;;;;;4976661;28;20034;-87
2021/03/30 12:58:02;;;;;;;6.70;6.05;;;19.20;67.10;;;;;;4973430;28;20038;-84
2021/03/30 13:00:28;;;;;;;6.65;5.00;;;19.20;66.90;;;;;;4973788;28;20468;-83
2021/03/30 13:02:54;;;;;;;6.93;5.15;;;19.20;66.70;;;;;;4978017;28;20450;-82
2021/03/30 13:05:21;;;;;;;6.97;5.90;;;19.30;66.50;;;;;;4971690;28;20133;-83
2021/03/30 13:07:48;;;;;;;6.00;5.10;;;19.40;66.50;;;;;;4988802;28;20060;-82
2021/03/30 13:10:15;;;;;;;7.70;4.90;;;19.40;66.50;;;;;;4972941;28;20058;-81